Time;durP1;ratioP1;P1;durP2;ratioP2;P2;SDS_P1;SDS_P2;PMS_P1;PMS_P2;Temp;Humidity;BMP_temperature;BMP_pressure;BME280_temperature;BME280_humidity;BME280_pressure;Samples;Min_cycle;Max_cycle;Signal;HPM_P1;HPM_P2
2022/10/15 00:01:24;;;;;;;;;;;;;;;17.60;69.78;94955.53;5051527;28;20481;-72
2022/10/15 00:03:50;;;;;;;;;;;;;;;17.57;69.80;94950.88;5051797;28;20037;-73
2022/10/15 00:06:16;;;;;;;;;;;;;;;17.10;69.67;94945.63;5051648;28;20013;-73
2022/10/15 00:08:42;;;;;;;;;;;;;;;17.28;70.00;94957.53;5052273;28;20006;-72
2022/10/15 00:11:09;;;;;;;;;;;;;;;17.25;70.01;94949.38;5051291;28;20013;-73
2022/10/15 00:13:35;;;;;;;;;;;;;;;16.88;70.26;94947.03;5052910;28;20484;-72
2022/10/15 00:16:00;;;;;;;;;;;;;;;17.04;70.85;94950.47;5050310;28;20009;-72
2022/10/15 00:18:25;;;;;;;;;;;;;;;17.25;71.16;94944.00;5050095;28;20137;-73
2022/10/15 00:20:50;;;;;;;;;;;;;;;17.32;71.02;94949.56;5052403;28;20405;-72
2022/10/15 00:23:16;;;;;;;;;;;;;;;17.35;70.75;94957.72;5051443;28;20076;-73
2022/10/15 00:25:41;;;;;;;;;;;;;;;17.38;70.81;94945.47;5050880;28;20461;-72
2022/10/15 00:28:06;;;;;;;;;;;;;;;17.41;70.52;94945.53;5050407;28;20014;-72
2022/10/15 00:30:31;;;;;;;;;;;;;;;17.44;69.87;94943.28;5050535;28;20548;-71
2022/10/15 00:32:57;;;;;;;;;;;;;;;17.36;69.65;94935.06;5050922;28;20356;-71
2022/10/15 00:35:22;;;;;;;;;;;;;;;17.41;70.35;94936.69;5049850;28;20017;-72
2022/10/15 00:37:47;;;;;;;;;;;;;;;17.49;70.46;94927.63;5050952;28;20016;-73
2022/10/15 00:40:14;;;;;;;;;;;;;;;17.56;70.29;94925.13;5049399;28;20416;-72
2022/10/15 00:42:39;;;;;;;;;;;;;;;17.56;69.85;94917.03;5049464;28;20382;-72
2022/10/15 00:45:04;;;;;;;;;;;;;;;17.39;69.25;94909.38;5049641;28;20020;-72
2022/10/15 00:47:36;;;;;;;;;;;;;;;17.29;68.95;94910.69;5049848;28;20521;-71
2022/10/15 00:50:23;;;;;;;;;;;;;;;17.25;69.81;94914.44;5050874;28;20013;-72
2022/10/15 00:52:58;;;;;;;;;;;;;;;17.33;70.17;94916.16;5050317;28;20021;-72
2022/10/15 00:55:31;;;;;;;;;;;;;;;17.48;70.52;94906.50;5050634;28;20020;-71
2022/10/15 00:57:59;;;;;;;;;;;;;;;17.57;70.19;94899.00;5051240;28;20020;-72
2022/10/15 01:00:25;;;;;;;;;;;;;;;17.55;70.00;94893.19;5051035;28;20109;-72
2022/10/15 01:02:50;;;;;;;;;;;;;;;17.58;69.24;94893.25;5051164;28;20096;-71
2022/10/15 01:05:16;;;;;;;;;;;;;;;17.59;69.88;94885.97;5049936;28;20016;-71
2022/10/15 01:07:42;;;;;;;;;;;;;;;17.55;69.28;94885.88;5050140;28;20474;-71
2022/10/15 01:10:08;;;;;;;;;;;;;;;17.60;69.58;94882.13;5049005;28;20020;-70
2022/10/15 01:12:46;;;;;;;;;;;;;;;17.63;69.43;94887.59;5050375;28;20064;-72
2022/10/15 01:15:17;;;;;;;;;;;;;;;17.58;68.72;94881.72;5049318;28;20016;-72
2022/10/15 01:17:49;;;;;;;;;;;;;;;17.63;69.16;94884.91;5049739;28;20112;-72
2022/10/15 01:20:23;;;;;;;;;;;;;;;17.61;68.90;94889.88;5050361;28;20014;-72
2022/10/15 01:23:00;;;;;;;;;;;;;;;17.57;69.15;94880.94;5051221;28;20004;-73
2022/10/15 01:25:28;;;;;;;;;;;;;;;17.59;69.51;94881.34;5050687;28;20014;-72
2022/10/15 01:27:55;;;;;;;;;;;;;;;17.64;69.99;94874.91;5048708;28;20013;-72
2022/10/15 01:30:20;;;;;;;;;;;;;;;17.66;70.32;94876.13;5048544;28;20485;-71
2022/10/15 01:32:53;;;;;;;;;;;;;;;17.70;70.15;94870.81;5051074;28;20013;-72
2022/10/15 01:35:18;;;;;;;;;;;;;;;17.72;70.34;94873.94;5049587;28;20067;-71
2022/10/15 01:37:54;;;;;;;;;;;;;;;17.72;69.99;94873.94;5050230;28;20018;-72
2022/10/15 01:40:22;;;;;;;;;;;;;;;17.75;70.43;94872.47;5049825;28;20111;-72
2022/10/15 01:42:55;;;;;;;;;;;;;;;17.74;70.44;94865.53;5048948;28;20524;-72
2022/10/15 01:45:24;;;;;;;;;;;;;;;17.67;70.41;94860.78;5049810;28;20017;-71
2022/10/15 01:47:57;;;;;;;;;;;;;;;17.66;71.26;94859.22;5049509;28;20355;-72
2022/10/15 01:50:25;;;;;;;;;;;;;;;17.68;71.21;94855.03;5048890;28;20075;-71
2022/10/15 01:52:51;;;;;;;;;;;;;;;17.66;71.07;94853.84;5050808;28;20009;-71
2022/10/15 01:55:18;;;;;;;;;;;;;;;17.68;70.96;94855.03;5049158;28;20009;-71
2022/10/15 01:57:45;;;;;;;;;;;;;;;17.72;71.10;94849.72;5037072;28;20025;-71
2022/10/15 02:00:10;;;;;;;;;;;;;;;17.59;69.57;94845.63;5048495;28;20017;-71
2022/10/15 02:02:35;;;;;;;;;;;;;;;17.58;70.95;94846.75;5030892;28;20032;-71
2022/10/15 02:05:01;;;;;;;;;;;;;;;17.64;71.27;94846.09;5039546;28;20050;-72
2022/10/15 02:07:44;;;;;;;;;;;;;;;17.68;71.34;94841.56;5049547;28;20009;-71
2022/10/15 02:10:14;;;;;;;;;;;;;;;17.66;71.20;94835.78;5048368;28;20013;-73
2022/10/15 02:13:02;;;;;;;;;;;;;;;17.67;71.69;94837.34;5048190;28;20385;-70
2022/10/15 02:15:46;;;;;;;;;;;;;;;17.67;71.69;94839.25;5043919;28;20643;-71
2022/10/15 02:18:37;;;;;;;;;;;;;;;17.66;71.61;94838.47;5048037;28;20017;-71
2022/10/15 02:21:07;;;;;;;;;;;;;;;17.50;71.84;94839.69;5045173;28;20017;-71
2022/10/15 02:23:50;;;;;;;;;;;;;;;17.38;71.27;94838.69;5050506;28;20006;-71
2022/10/15 02:26:16;;;;;;;;;;;;;;;17.45;71.76;94827.28;5053143;28;20018;-72
2022/10/15 02:28:43;;;;;;;;;;;;;;;17.37;71.46;94834.47;5048488;28;20063;-72
2022/10/15 02:31:11;;;;;;;;;;;;;;;17.35;71.75;94830.56;5047935;28;20013;-72
2022/10/15 02:33:37;;;;;;;;;;;;;;;17.37;72.33;94831.78;5063892;28;20696;-71
2022/10/15 02:36:03;;;;;;;;;;;;;;;17.37;71.99;94836.38;5051377;28;20121;-71
2022/10/15 02:38:31;;;;;;;;;;;;;;;17.37;71.39;94826.38;5049681;28;20746;-72
2022/10/15 02:40:56;;;;;;;;;;;;;;;17.37;71.15;94828.31;5048456;28;20159;-72
2022/10/15 02:43:21;;;;;;;;;;;;;;;17.37;71.15;94825.63;5048830;28;20096;-72
2022/10/15 02:45:47;;;;;;;;;;;;;;;17.31;71.09;94824.34;5050018;28;20079;-71
2022/10/15 02:48:12;;;;;;;;;;;;;;;16.99;71.11;94776.09;5049658;28;20005;-72
2022/10/15 02:50:38;;;;;;;;;;;;;;;17.32;71.37;94820.53;5046083;28;20012;-71
2022/10/15 02:53:03;;;;;;;;;;;;;;;17.32;70.87;94807.09;5049880;28;20010;-72
2022/10/15 02:55:28;;;;;;;;;;;;;;;17.37;70.98;94812.19;5049076;28;20014;-72
2022/10/15 02:57:53;;;;;;;;;;;;;;;17.48;71.13;94815.84;5049151;28;20453;-72
2022/10/15 03:00:19;;;;;;;;;;;;;;;17.40;70.31;94812.25;5046061;28;20017;-72
2022/10/15 03:02:44;;;;;;;;;;;;;;;17.32;70.87;94809.78;5049070;28;20014;-72
2022/10/15 03:05:09;;;;;;;;;;;;;;;17.41;70.61;94813.81;5048086;28;20009;-72
2022/10/15 03:07:35;;;;;;;;;;;;;;;17.44;70.76;94812.31;5049932;28;20017;-71
2022/10/15 03:10:00;;;;;;;;;;;;;;;17.45;70.32;94815.75;5049313;28;20009;-72
2022/10/15 03:12:25;;;;;;;;;;;;;;;17.32;70.43;94812.47;5047772;28;20020;-72
2022/10/15 03:14:51;;;;;;;;;;;;;;;17.40;70.59;94809.56;5048714;28;20021;-72
2022/10/15 03:17:16;;;;;;;;;;;;;;;17.54;70.65;94814.41;5048547;28;20005;-72
2022/10/15 03:19:42;;;;;;;;;;;;;;;17.59;70.51;94819.50;5048019;28;20656;-71
2022/10/15 03:22:07;;;;;;;;;;;;;;;17.67;70.06;94812.34;5048097;28;20381;-72
2022/10/15 03:24:32;;;;;;;;;;;;;;;17.61;70.14;94813.78;5053525;28;20008;-72
2022/10/15 03:26:57;;;;;;;;;;;;;;;17.64;69.94;94815.75;5052621;28;20510;-72
2022/10/15 03:29:22;;;;;;;;;;;;;;;17.70;69.95;94808.16;5051878;28;20461;-72
2022/10/15 03:31:48;;;;;;;;;;;;;;;17.70;69.56;94808.94;5047550;28;20017;-72
2022/10/15 03:34:13;;;;;;;;;;;;;;;17.73;69.55;94810.94;5065651;28;20014;-72
2022/10/15 03:36:39;;;;;;;;;;;;;;;17.68;69.37;94814.69;5077385;28;20013;-72
2022/10/15 03:39:04;;;;;;;;;;;;;;;17.64;70.03;94805.00;5051386;28;20518;-72
2022/10/15 03:41:30;;;;;;;;;;;;;;;17.71;70.02;94810.50;5051492;28;20023;-72
2022/10/15 03:43:59;;;;;;;;;;;;;;;17.60;69.89;94810.28;5053430;28;20005;-72
2022/10/15 03:46:24;;;;;;;;;;;;;;;17.66;70.06;94805.44;5052162;28;20045;-72
2022/10/15 03:48:49;;;;;;;;;;;;;;;17.63;69.58;94808.81;5050456;28;20111;-72
2022/10/15 03:51:15;;;;;;;;;;;;;;;17.65;70.08;94815.38;5052950;28;20012;-72
2022/10/15 03:53:40;;;;;;;;;;;;;;;17.67;69.70;94801.59;5052606;28;20009;-72
2022/10/15 03:56:05;;;;;;;;;;;;;;;17.77;70.03;94811.03;5052870;28;20013;-71
2022/10/15 03:58:30;;;;;;;;;;;;;;;17.80;70.09;94802.22;5050559;28;20082;-72
2022/10/15 04:00:56;;;;;;;;;;;;;;;17.82;69.67;94808.03;5049549;28;20068;-72
2022/10/15 04:03:21;;;;;;;;;;;;;;;17.65;69.71;94803.84;5051574;28;20013;-72
2022/10/15 04:05:50;;;;;;;;;;;;;;;17.76;69.66;94804.06;5052400;28;20020;-73
2022/10/15 04:08:15;;;;;;;;;;;;;;;17.78;69.67;94805.28;5052072;28;20548;-73
2022/10/15 04:10:40;;;;;;;;;;;;;;;17.81;69.70;94809.16;5050749;28;20014;-73
2022/10/15 04:13:05;;;;;;;;;;;;;;;17.83;69.65;94801.53;5051108;28;20009;-72
2022/10/15 04:15:31;;;;;;;;;;;;;;;17.67;69.87;94806.97;5050517;28;20020;-72
2022/10/15 04:17:56;;;;;;;;;;;;;;;17.67;70.18;94806.97;5050682;28;20013;-72
2022/10/15 04:20:21;;;;;;;;;;;;;;;17.73;70.16;94812.88;5051638;28;20036;-72
2022/10/15 04:22:46;;;;;;;;;;;;;;;17.47;71.40;94808.91;5052628;28;20092;-72
2022/10/15 04:25:12;;;;;;;;;;;;;;;17.58;71.32;94803.72;5051135;28;20013;-72
2022/10/15 04:27:37;;;;;;;;;;;;;;;17.82;70.68;94808.03;5050558;28;20495;-72
2022/10/15 04:30:02;;;;;;;;;;;;;;;17.58;71.39;94809.88;5049882;28;20015;-72
2022/10/15 04:32:27;;;;;;;;;;;;;;;17.44;71.44;94804.22;5051715;28;20009;-72
2022/10/15 04:34:52;;;;;;;;;;;;;;;17.48;71.79;94815.84;5050612;28;20013;-72
2022/10/15 04:37:17;;;;;;;;;;;;;;;17.56;72.20;94808.69;5048742;28;20059;-73
2022/10/15 04:39:43;;;;;;;;;;;;;;;17.36;72.69;94810.63;5051633;28;20050;-73
2022/10/15 04:42:08;;;;;;;;;;;;;;;17.24;72.88;94819.59;5051724;28;20015;-72
2022/10/15 04:44:33;;;;;;;;;;;;;;;16.50;76.25;94814.16;5051868;28;20032;-73
2022/10/15 04:46:59;;;;;;;;;;;;;;;16.77;75.63;94822.44;5049504;28;20013;-69
2022/10/15 04:49:24;;;;;;;;;;;;;;;17.12;74.91;94811.69;5047935;28;20100;-72
2022/10/15 04:51:50;;;;;;;;;;;;;;;16.75;75.61;94817.44;5050793;28;20104;-72
2022/10/15 04:54:15;;;;;;;;;;;;;;;16.62;76.44;94821.31;5050855;28;20555;-72
2022/10/15 04:56:40;;;;;;;;;;;;;;;16.92;75.83;94810.88;5051352;28;20013;-72
2022/10/15 04:59:06;;;;;;;;;;;;;;;16.70;76.95;94822.28;5053175;28;20018;-73
2022/10/15 05:01:31;;;;;;;;;;;;;;;17.28;74.86;94827.72;5050040;28;20010;-72
2022/10/15 05:03:56;;;;;;;;;;;;;;;16.85;75.68;94822.25;5051929;28;20052;-72
2022/10/15 05:06:21;;;;;;;;;;;;;;;16.50;76.16;94795.38;5049191;28;20496;-72
2022/10/15 05:08:48;;;;;;;;;;;;;;;16.98;75.75;94817.53;5051107;28;20109;-73
2022/10/15 05:11:17;;;;;;;;;;;;;;;16.47;77.88;94822.91;5051207;28;20063;-74
2022/10/15 05:13:43;;;;;;;;;;;;;;;16.62;77.06;94834.75;5050285;28;20009;-72
2022/10/15 05:16:21;;;;;;;;;;;;;;;16.66;77.21;94834.84;5050797;28;20021;-73
2022/10/15 05:18:48;;;;;;;;;;;;;;;16.76;77.04;94828.94;5049576;28;20056;-72
2022/10/15 05:21:14;;;;;;;;;;;;;;;17.15;75.66;94832.47;5049963;28;20041;-72
2022/10/15 05:23:39;;;;;;;;;;;;;;;17.21;75.31;94828.38;5049442;28;20734;-73
2022/10/15 05:26:06;;;;;;;;;;;;;;;17.21;74.72;94841.81;5050882;28;20013;-73
2022/10/15 05:28:32;;;;;;;;;;;;;;;17.45;74.24;94837.28;5050106;28;20017;-73
2022/10/15 05:31:08;;;;;;;;;;;;;;;16.80;76.90;94835.97;5049293;28;20018;-73
2022/10/15 05:33:33;;;;;;;;;;;;;;;16.74;76.55;94850.81;5031314;28;20374;-75
2022/10/15 05:36:12;;;;;;;;;;;;;;;17.11;75.95;94850.44;5051101;28;20009;-73
2022/10/15 05:38:38;;;;;;;;;;;;;;;17.14;76.35;94845.13;5049788;28;20029;-73
2022/10/15 05:41:03;;;;;;;;;;;;;;;17.21;76.20;94849.88;5048673;28;20471;-73
2022/10/15 05:43:29;;;;;;;;;;;;;;;16.93;75.90;94857.31;5050074;28;20010;-73
2022/10/15 05:45:54;;;;;;;;;;;;;;;16.81;77.98;94853.63;5049923;28;20021;-73
2022/10/15 05:48:20;;;;;;;;;;;;;;;16.58;78.23;94866.91;5049299;28;20135;-73
2022/10/15 05:50:45;;;;;;;;;;;;;;;16.70;78.37;94860.66;5049497;28;20041;-73
2022/10/15 05:53:10;;;;;;;;;;;;;;;16.67;77.73;94861.34;5050873;28;20012;-72
2022/10/15 05:55:36;;;;;;;;;;;;;;;17.04;77.43;94872.53;5055686;28;20021;-72
2022/10/15 05:58:02;;;;;;;;;;;;;;;17.23;75.71;94866.41;5050904;28;20006;-73
2022/10/15 06:00:27;;;;;;;;;;;;;;;17.19;76.32;94875.53;5048439;28;20036;-73
2022/10/15 06:02:52;;;;;;;;;;;;;;;16.86;77.50;94880.22;5050599;28;20029;-72
2022/10/15 06:05:17;;;;;;;;;;;;;;;16.98;76.97;94879.31;5048397;28;20013;-73
2022/10/15 06:07:43;;;;;;;;;;;;;;;17.15;76.24;94878.16;5048897;28;20036;-73
2022/10/15 06:10:08;;;;;;;;;;;;;;;17.49;74.85;94881.94;5049576;28;20477;-73
2022/10/15 06:12:33;;;;;;;;;;;;;;;17.33;74.27;94886.59;5048973;28;20006;-73
2022/10/15 06:14:58;;;;;;;;;;;;;;;17.56;74.25;94892.06;5048940;28;20506;-73
2022/10/15 06:17:24;;;;;;;;;;;;;;;17.29;76.15;94888.41;5049634;28;20006;-73
2022/10/15 06:19:49;;;;;;;;;;;;;;;17.18;75.88;94901.63;5048908;28;20374;-74
2022/10/15 06:22:14;;;;;;;;;;;;;;;17.11;76.63;94909.56;5049480;28;20009;-72
2022/10/15 06:24:39;;;;;;;;;;;;;;;16.98;76.87;94905.41;5048902;28;20508;-72
2022/10/15 06:27:04;;;;;;;;;;;;;;;17.03;76.34;94911.28;5048634;28;20120;-72
2022/10/15 06:29:30;;;;;;;;;;;;;;;16.99;77.47;94915.81;5059449;28;20013;-73
2022/10/15 06:31:55;;;;;;;;;;;;;;;16.50;78.88;94920.78;5048563;28;20347;-72
2022/10/15 06:34:20;;;;;;;;;;;;;;;16.49;79.81;94919.22;5049307;28;20014;-73
2022/10/15 06:36:45;;;;;;;;;;;;;;;16.97;77.97;94925.34;5050015;28;20028;-72
2022/10/15 06:39:10;;;;;;;;;;;;;;;16.94;77.88;94931.41;5047427;28;20021;-72
2022/10/15 06:41:36;;;;;;;;;;;;;;;17.20;76.95;94933.53;5045154;28;20020;-73
2022/10/15 06:44:01;;;;;;;;;;;;;;;17.28;76.34;94932.56;5070270;28;20020;-72
2022/10/15 06:46:26;;;;;;;;;;;;;;;17.86;75.15;94943.38;5047965;28;20021;-73
2022/10/15 06:48:53;;;;;;;;;;;;;;;17.77;74.88;94942.84;5048291;28;20455;-72
2022/10/15 06:51:18;;;;;;;;;;;;;;;17.38;76.10;94945.47;5048769;28;20006;-72
2022/10/15 06:53:43;;;;;;;;;;;;;;;17.30;76.30;94938.34;5048245;28;20016;-72
2022/10/15 06:56:08;;;;;;;;;;;;;;;17.73;74.05;94936.59;5048420;28;20493;-73
2022/10/15 06:58:34;;;;;;;;;;;;;;;18.24;73.14;94939.13;5052839;28;20609;-73
2022/10/15 07:01:03;;;;;;;;;;;;;;;18.27;73.04;94951.84;5055186;28;20022;-72
2022/10/15 07:03:28;;;;;;;;;;;;;;;17.98;73.20;94962.09;5055292;28;20016;-73
2022/10/15 07:05:54;;;;;;;;;;;;;;;17.67;74.89;94969.13;5057846;28;20116;-72
2022/10/15 07:08:19;;;;;;;;;;;;;;;17.43;75.29;94969.38;5055227;28;20016;-73
2022/10/15 07:10:44;;;;;;;;;;;;;;;17.19;76.09;94975.75;5056358;28;20013;-72
2022/10/15 07:13:10;;;;;;;;;;;;;;;18.15;73.64;94972.41;5054280;28;20009;-72
2022/10/15 07:15:35;;;;;;;;;;;;;;;17.71;73.92;94976.50;5055978;28;20017;-74
2022/10/15 07:18:00;;;;;;;;;;;;;;;17.82;74.04;94985.59;5053921;28;20009;-72
2022/10/15 07:20:26;;;;;;;;;;;;;;;17.65;75.13;94981.38;5055709;28;20113;-73
2022/10/15 07:22:56;;;;;;;;;;;;;;;18.33;72.89;94980.06;5054851;28;20013;-72
2022/10/15 07:25:22;;;;;;;;;;;;;;;17.84;73.65;94988.72;5056385;28;20100;-72
2022/10/15 07:27:47;;;;;;;;;;;;;;;17.93;72.89;94995.44;5054289;28;20502;-72
2022/10/15 07:30:12;;;;;;;;;;;;;;;18.33;71.71;94982.75;5053926;28;20505;-72
2022/10/15 07:32:37;;;;;;;;;;;;;;;18.10;72.86;95002.31;5055186;28;20009;-72
2022/10/15 07:35:03;;;;;;;;;;;;;;;18.62;70.66;94995.56;5056112;28;20009;-72
2022/10/15 07:37:29;;;;;;;;;;;;;;;17.83;72.81;95009.47;5054414;28;20099;-72
2022/10/15 07:39:54;;;;;;;;;;;;;;;18.22;72.94;95008.66;5053984;28;20116;-72
2022/10/15 07:42:20;;;;;;;;;;;;;;;17.92;73.23;95006.56;5051348;28;20018;-73
2022/10/15 07:44:45;;;;;;;;;;;;;;;17.99;73.32;95017.47;5081122;28;20014;-74
2022/10/15 07:47:11;;;;;;;;;;;;;;;17.61;74.60;95018.97;5055696;28;20013;-74
2022/10/15 07:49:36;;;;;;;;;;;;;;;17.60;75.15;95011.22;5055429;28;20014;-74
2022/10/15 07:52:01;;;;;;;;;;;;;;;17.73;74.26;95022.69;5056491;28;20005;-75
2022/10/15 07:54:26;;;;;;;;;;;;;;;17.95;72.49;95032.75;5055779;28;20013;-73
2022/10/15 07:56:51;;;;;;;;;;;;;;;17.68;74.09;95016.41;5040862;28;20014;-73
2022/10/15 07:59:17;;;;;;;;;;;;;;;17.92;74.22;95017.34;5036369;28;20049;-74
2022/10/15 08:01:42;;;;;;;;;;;;;;;17.52;74.23;95026.44;5036673;28;20036;-73
2022/10/15 08:04:07;;;;;;;;;;;;;;;17.38;75.07;95018.81;5052063;28;20450;-74
2022/10/15 08:06:32;;;;;;;;;;;;;;;17.58;74.21;95029.63;5055939;28;20017;-74
2022/10/15 08:08:57;;;;;;;;;;;;;;;16.95;76.49;95024.34;5067269;28;20014;-73
2022/10/15 08:11:23;;;;;;;;;;;;;;;17.68;74.42;95024.50;5053021;28;20012;-73
2022/10/15 08:13:48;;;;;;;;;;;;;;;17.48;74.98;95036.34;5065277;28;20486;-73
2022/10/15 08:16:14;;;;;;;;;;;;;;;17.33;75.10;95034.44;5061944;28;20013;-73
2022/10/15 08:18:40;;;;;;;;;;;;;;;17.59;73.36;95040.03;5072498;28;20005;-73
2022/10/15 08:21:06;;;;;;;;;;;;;;;16.81;76.08;95060.47;5062014;28;20039;-73
2022/10/15 08:23:32;;;;;;;;;;;;;;;17.12;75.09;95045.47;5051166;28;20020;-74
2022/10/15 08:25:59;;;;;;;;;;;;;;;17.41;74.06;95063.06;5051919;28;20018;-74
2022/10/15 08:28:24;;;;;;;;;;;;;;;16.93;74.87;95062.28;5052504;28;20411;-73
2022/10/15 08:30:49;;;;;;;;;;;;;;;17.68;72.69;95067.53;5050598;28;20024;-67
2022/10/15 08:33:15;;;;;;;;;;;;;;;17.97;71.25;95070.09;5050103;28;20006;-73
2022/10/15 08:35:43;;;;;;;;;;;;;;;17.77;71.54;95072.75;5048947;28;20104;-72
2022/10/15 08:38:11;;;;;;;;;;;;;;;18.17;70.72;95079.75;5050512;28;20114;-72
2022/10/15 08:40:37;;;;;;;;;;;;;;;18.46;70.21;95083.78;5050674;28;20057;-70
2022/10/15 08:43:03;;;;;;;;;;;;;;;18.44;71.38;95094.13;5050451;28;20056;-69
2022/10/15 08:45:30;;;;;;;;;;;;;;;17.90;72.89;95094.94;5047270;28;20128;-69
2022/10/15 08:47:59;;;;;;;;;;;;;;;17.85;72.50;95081.75;5057586;28;20059;-69
2022/10/15 08:50:24;;;;;;;;;;;;;;;17.60;75.00;95087.31;5059454;28;20116;-69
2022/10/15 08:52:50;;;;;;;;;;;;;;;17.29;74.59;95106.94;5052259;28;20108;-71
2022/10/15 08:55:17;;;;;;;;;;;;;;;17.09;77.37;95100.69;5047685;28;20116;-74
2022/10/15 08:57:47;;;;;;;;;;;;;;;16.78;77.33;95109.50;5051033;28;20014;-74
2022/10/15 09:00:24;;;;;;;;;;;;;;;16.76;79.20;95114.44;5050616;28;20032;-73
2022/10/15 09:02:49;;;;;;;;;;;;;;;16.72;79.06;95105.50;5051112;28;20013;-73
2022/10/15 09:05:14;;;;;;;;;;;;;;;17.30;77.19;95110.41;5051143;28;20063;-71
2022/10/15 09:07:43;;;;;;;;;;;;;;;16.80;78.59;95109.16;5049248;28;20393;-71
2022/10/15 09:10:12;;;;;;;;;;;;;;;16.92;78.77;95103.72;5046491;28;20623;-72
2022/10/15 09:13:03;;;;;;;;;;;;;;;17.37;77.37;95107.91;5058951;28;20104;-76
2022/10/15 09:15:32;;;;;;;;;;;;;;;17.44;76.48;95108.06;5037772;28;20014;-73
2022/10/15 09:17:58;;;;;;;;;;;;;;;17.94;74.22;95106.56;5064028;28;20009;-71
2022/10/15 09:20:25;;;;;;;;;;;;;;;18.23;73.90;95096.41;5029783;28;20072;-72
2022/10/15 09:22:51;;;;;;;;;;;;;;;18.36;72.91;95095.13;5063801;28;20065;-73
2022/10/15 09:25:17;;;;;;;;;;;;;;;19.49;68.98;95103.72;5049915;28;20060;-73
2022/10/15 09:27:44;;;;;;;;;;;;;;;19.00;69.04;95090.19;5050310;28;20673;-73
2022/10/15 09:30:09;;;;;;;;;;;;;;;19.69;68.06;95091.72;5051680;28;20012;-72
2022/10/15 09:32:35;;;;;;;;;;;;;;;19.47;67.62;95084.44;5051749;28;20010;-72
2022/10/15 09:35:11;;;;;;;;;;;;;;;19.15;68.89;95095.47;5049941;28;20013;-72
2022/10/15 09:37:47;;;;;;;;;;;;;;;19.69;66.62;95089.03;5051813;28;20032;-73
2022/10/15 09:40:22;;;;;;;;;;;;;;;19.52;66.88;95089.50;5048979;28;20013;-73
2022/10/15 09:42:49;;;;;;;;;;;;;;;19.56;67.31;95095.75;5051225;28;20004;-73
2022/10/15 09:45:15;;;;;;;;;;;;;;;19.87;65.74;95102.78;5051306;28;20110;-73
2022/10/15 09:47:41;;;;;;;;;;;;;;;19.73;64.94;95103.34;5051221;28;20010;-73
2022/10/15 09:50:08;;;;;;;;;;;;;;;19.56;65.24;95094.97;5049497;28;20044;-72
2022/10/15 09:52:51;;;;;;;;;;;;;;;19.46;65.74;95102.53;5049862;28;20017;-72
2022/10/15 09:55:26;;;;;;;;;;;;;;;19.61;65.99;95098.16;5049887;28;20013;-72
2022/10/15 09:57:53;;;;;;;;;;;;;;;20.92;61.96;95111.03;5029754;28;20024;-71
2022/10/15 10:00:19;;;;;;;;;;;;;;;20.13;62.96;95107.41;5030682;28;20018;-72
2022/10/15 10:03:01;;;;;;;;;;;;;;;20.30;62.47;95111.47;5031152;28;20006;-73
2022/10/15 10:05:28;;;;;;;;;;;;;;;19.78;64.30;95109.59;5044906;28;20116;-72
2022/10/15 10:08:06;;;;;;;;;;;;;;;20.54;61.69;95099.44;5050676;28;20006;-72
2022/10/15 10:10:33;;;;;;;;;;;;;;;20.79;61.95;95109.75;5048307;28;20382;-73
2022/10/15 10:12:58;;;;;;;;;;;;;;;20.60;61.24;95111.47;5050412;28;20500;-72
2022/10/15 10:15:32;;;;;;;;;;;;;;;20.81;60.17;95110.94;5049451;28;20013;-73
2022/10/15 10:17:57;;;;;;;;;;;;;;;19.63;62.72;95105.91;5049430;28;20063;-73
2022/10/15 10:20:24;;;;;;;;;;;;;;;19.99;62.15;95112.59;5048869;28;20473;-72
2022/10/15 10:22:49;;;;;;;;;;;;;;;20.85;60.41;95116.38;5049423;28;20016;-73
2022/10/15 10:25:41;;;;;;;;;;;;;;;21.64;58.13;95115.97;5048466;28;20108;-73
2022/10/15 10:28:12;;;;;;;;;;;;;;;21.28;57.57;95126.47;5047052;28;20014;-73
2022/10/15 10:30:44;;;;;;;;;;;;;;;20.45;58.85;95112.41;5048958;28;20016;-73
2022/10/15 10:33:12;;;;;;;;;;;;;;;20.88;58.83;95112.94;5048054;28;20369;-73
2022/10/15 10:35:45;;;;;;;;;;;;;;;20.65;59.35;95119.25;5048035;28;20109;-72
2022/10/15 10:38:40;;;;;;;;;;;;;;;21.68;58.35;95122.19;5050154;28;20116;-73
2022/10/15 10:41:08;;;;;;;;;;;;;;;22.03;54.60;95110.06;5033078;28;20032;-72
2022/10/15 10:43:35;;;;;;;;;;;;;;;23.01;52.50;95110.13;5062394;28;20010;-72
2022/10/15 10:46:00;;;;;;;;;;;;;;;22.13;53.97;95114.03;5042602;28;20014;-72
2022/10/15 10:48:37;;;;;;;;;;;;;;;21.32;55.34;95112.25;5048454;28;20010;-72
2022/10/15 10:51:07;;;;;;;;;;;;;;;21.07;56.42;95109.25;5048986;28;20016;-68
2022/10/15 10:53:34;;;;;;;;;;;;;;;21.43;54.73;95113.88;5049484;28;20347;-71
2022/10/15 10:56:00;;;;;;;;;;;;;;;21.20;55.08;95108.63;5048185;28;20024;-71
2022/10/15 10:58:26;;;;;;;;;;;;;;;21.60;53.50;95108.97;5049653;28;20442;-71
2022/10/15 11:00:52;;;;;;;;;;;;;;;21.96;52.48;95112.75;5048409;28;20036;-70
2022/10/15 11:03:31;;;;;;;;;;;;;;;21.00;55.17;95104.56;5048936;28;20628;-70
2022/10/15 11:06:03;;;;;;;;;;;;;;;21.92;52.66;95109.22;5048983;28;20005;-71
2022/10/15 11:08:28;;;;;;;;;;;;;;;20.85;54.86;95114.47;5049607;28;20045;-71
2022/10/15 11:11:18;;;;;;;;;;;;;;;20.91;54.96;95112.97;5048881;28;20059;-72
2022/10/15 11:14:16;;;;;;;;;;;;;;;22.03;53.32;95116.25;5047550;28;20060;-72
2022/10/15 11:16:51;;;;;;;;;;;;;;;22.64;51.16;95126.66;5048948;28;20018;-72
2022/10/15 11:19:26;;;;;;;;;;;;;;;21.40;54.41;95125.47;5048350;28;20009;-72
2022/10/15 11:22:08;;;;;;;;;;;;;;;20.98;54.56;95134.66;5049143;28;20518;-73
2022/10/15 11:24:49;;;;;;;;;;;;;;;21.74;53.03;95112.56;5048645;28;20381;-73
2022/10/15 11:27:33;;;;;;;;;;;;;;;22.08;51.78;95119.75;5029988;28;20363;-76
2022/10/15 11:30:04;;;;;;;;;;;;;;;22.87;49.84;95107.34;5029539;28;20006;-74
2022/10/15 11:32:32;;;;;;;;;;;;;;;20.91;54.26;95123.78;5030413;28;20014;-74
2022/10/15 11:34:57;;;;;;;;;;;;;;;21.34;53.29;95118.03;5030081;28;20028;-74
2022/10/15 11:37:29;;;;;;;;;;;;;;;21.86;52.21;95114.22;5039807;28;20705;-73
2022/10/15 11:39:54;;;;;;;;;;;;;;;22.20;51.44;95106.69;5048908;28;21640;-75
2022/10/15 11:42:19;;;;;;;;;;;;;;;22.87;49.33;95118.97;5048690;28;20014;-76
2022/10/15 11:44:53;;;;;;;;;;;;;;;22.64;50.30;95111.16;5050612;28;20014;-72
2022/10/15 11:47:37;;;;;;;;;;;;;;;22.63;50.75;95104.19;5051728;28;20108;-73
2022/10/15 11:50:14;;;;;;;;;;;;;;;23.59;49.07;95088.06;5051822;28;20010;-73
2022/10/15 11:52:39;;;;;;;;;;;;;;;23.30;47.75;95098.16;5052926;28;20378;-73
2022/10/15 11:55:16;;;;;;;;;;;;;;;22.98;48.30;95110.91;5052666;28;20017;-71
2022/10/15 11:57:43;;;;;;;;;;;;;;;21.48;51.34;95112.75;5085920;28;20018;-73
2022/10/15 12:00:26;;;;;;;;;;;;;;;21.82;51.32;95115.34;5051172;28;20059;-73
2022/10/15 12:02:53;;;;;;;;;;;;;;;21.22;51.83;95100.91;5041837;28;20075;-72
2022/10/15 12:05:27;;;;;;;;;;;;;;;20.92;53.06;95108.34;5053484;28;20005;-76
2022/10/15 12:07:53;;;;;;;;;;;;;;;21.44;51.02;95111.94;5053097;28;20535;-72
2022/10/15 12:10:37;;;;;;;;;;;;;;;21.04;52.66;95110.81;5050167;28;20021;-70
2022/10/15 12:13:31;;;;;;;;;;;;;;;21.58;51.63;95114.78;5051525;28;20013;-69
2022/10/15 12:15:57;;;;;;;;;;;;;;;21.24;51.75;95120.28;5012881;28;20085;-68
2022/10/15 12:18:28;;;;;;;;;;;;;;;20.70;53.50;95126.25;5032861;28;20117;-73
2022/10/15 12:20:54;;;;;;;;;;;;;;;20.81;53.04;95110.16;5037185;28;20430;-72
2022/10/15 12:23:24;;;;;;;;;;;;;;;21.05;52.55;95122.41;5052376;28;20091;-77
2022/10/15 12:25:50;;;;;;;;;;;;;;;20.76;53.80;95116.66;5051159;28;20018;-73
2022/10/15 12:28:17;;;;;;;;;;;;;;;20.71;53.36;95120.47;5052456;28;20009;-73
2022/10/15 12:30:52;;;;;;;;;;;;;;;21.02;52.65;95119.25;5084321;28;20013;-72
2022/10/15 12:33:23;;;;;;;;;;;;;;;21.56;52.19;95113.59;5051264;28;20013;-73
2022/10/15 12:35:55;;;;;;;;;;;;;;;21.12;53.08;95117.03;5052090;28;20016;-74
2022/10/15 12:38:26;;;;;;;;;;;;;;;21.05;53.26;95122.41;5052780;28;20482;-74
2022/10/15 12:41:03;;;;;;;;;;;;;;;20.66;54.00;95120.03;5050893;28;20014;-74
2022/10/15 12:43:30;;;;;;;;;;;;;;;21.02;53.30;95107.66;5053044;28;20009;-75
2022/10/15 12:45:58;;;;;;;;;;;;;;;20.91;53.68;95104.88;5050647;28;20359;-75
2022/10/15 12:48:29;;;;;;;;;;;;;;;21.07;53.57;95099.22;5050975;28;20045;-73
2022/10/15 12:51:13;;;;;;;;;;;;;;;20.54;55.36;95112.19;5051444;28;20159;-74
2022/10/15 12:53:40;;;;;;;;;;;;;;;21.36;52.66;95102.22;5051499;28;20014;-74